Time,TemperatureF,DewpointF,PressureIn,WindDirection,WindDirectionDegrees,WindSpeedMPH,WindSpeedGustMPH,Humidity,HourlyPrecipIn,Conditions,Clouds,dailyrainin,SoftwareType,DateUTC
2013-03-11 00:03:00,44.6,41.3,29.82,NE,43,0.0,0.0,88,0.01,,---,0.00,VWS V14.00,2013-03-11 04:03:00,
2013-03-11 00:08:00,44.7,41.7,29.82,NE,43,0.0,1.0,89,0.01,,---,0.00,VWS V14.00,2013-03-11 04:08:00,
2013-03-11 00:13:00,44.1,40.5,29.82,NE,43,0.0,1.0,87,0.01,,---,0.00,VWS V14.00,2013-03-11 04:13:00,
2013-03-11 00:18:00,43.3,39.7,29.82,NE,43,0.0,1.0,87,0.01,,---,0.00,VWS V14.00,2013-03-11 04:18:00,
2013-03-11 00:23:00,43.2,40.2,29.81,NE,43,0.0,1.0,89,0.01,,---,0.00,VWS V14.00,2013-03-11 04:23:00,
2013-03-11 00:28:00,43.2,40.5,29.81,NE,43,1.0,1.0,90,0.00,,---,0.00,VWS V14.00,2013-03-11 04:28:00,
2013-03-11 00:33:00,43.6,40.9,29.81,NE,43,0.0,1.0,90,0.00,,---,0.00,VWS V14.00,2013-03-11 04:33:00,
2013-03-11 00:38:00,42.8,39.5,29.81,NE,43,0.0,2.0,88,0.01,,---,0.01,VWS V14.00,2013-03-11 04:38:00,
2013-03-11 00:43:00,41.8,38.5,29.81,NE,43,0.0,2.0,88,0.01,,---,0.01,VWS V14.00,2013-03-11 04:43:00,
2013-03-11 00:48:00,41.5,38.8,29.81,NE,42,0.0,2.0,90,0.01,,---,0.01,VWS V14.00,2013-03-11 04:48:00,
2013-03-11 00:53:00,41.4,39.0,29.81,NE,42,0.0,2.0,91,0.01,,---,0.01,VWS V14.00,2013-03-11 04:53:00,
2013-03-11 00:58:00,41.3,38.6,29.81,NE,43,0.0,0.0,90,0.01,,---,0.01,VWS V14.00,2013-03-11 04:58:00,
2013-03-11 01:03:00,41.3,39.2,29.81,NE,43,0.0,0.0,92,0.01,,---,0.01,VWS V14.00,2013-03-11 05:03:00,
2013-03-11 01:08:00,42.0,40.1,29.81,NE,42,0.0,1.0,93,0.01,,---,0.01,VWS V14.00,2013-03-11 05:08:00,
2013-03-11 01:13:00,43.3,41.4,29.80,East,80,2.0,4.0,93,0.01,,---,0.01,VWS V14.00,2013-03-11 05:13:00,
2013-03-11 01:18:00,44.6,42.4,29.80,East,80,2.0,4.0,92,0.01,,---,0.01,VWS V14.00,2013-03-11 05:18:00,
2013-03-11 01:23:00,46.0,43.0,29.79,East,80,2.0,4.0,89,0.01,,---,0.01,VWS V14.00,2013-03-11 05:23:00,
2013-03-11 01:28:00,46.7,42.7,29.78,East,80,2.0,3.0,86,0.01,,---,0.01,VWS V14.00,2013-03-11 05:28:00,
2013-03-11 01:33:00,46.5,42.5,29.78,East,80,2.0,4.0,86,0.01,,---,0.01,VWS V14.00,2013-03-11 05:33:00,
2013-03-11 01:38:00,46.7,42.4,29.78,East,80,2.0,4.0,85,0.01,,---,0.01,VWS V14.00,2013-03-11 05:38:00,
2013-03-11 01:43:00,46.6,42.3,29.78,East,80,2.0,4.0,85,0.01,,---,0.01,VWS V14.00,2013-03-11 05:43:00,
2013-03-11 01:48:00,46.7,42.1,29.77,East,80,2.0,4.0,84,0.01,,---,0.01,VWS V14.00,2013-03-11 05:48:00,
2013-03-11 01:53:00,46.5,42.2,29.77,East,80,2.0,4.0,85,0.01,,---,0.01,VWS V14.00,2013-03-11 05:53:00,
2013-03-11 01:58:00,46.5,41.9,29.77,East,80,3.0,3.0,84,0.00,,---,0.01,VWS V14.00,2013-03-11 05:58:00,
2013-03-11 02:03:00,46.7,41.8,29.77,East,80,2.0,5.0,83,0.00,,---,0.01,VWS V14.00,2013-03-11 06:03:00,
2013-03-11 02:08:00,46.2,41.6,29.76,East,96,1.0,6.0,84,0.00,,---,0.01,VWS V14.00,2013-03-11 06:08:00,
2013-03-11 02:13:00,46.2,41.6,29.76,ESE,115,5.0,8.0,84,0.00,,---,0.01,VWS V14.00,2013-03-11 06:13:00,
2013-03-11 02:18:00,47.3,42.1,29.76,ESE,109,6.0,8.0,82,0.00,,---,0.01,VWS V14.00,2013-03-11 06:18:00,
2013-03-11 02:23:00,48.6,42.1,29.76,SSE,159,8.0,9.0,78,0.00,,---,0.01,VWS V14.00,2013-03-11 06:23:00,
2013-03-11 02:28:00,50.0,42.4,29.75,SE,144,7.0,11.0,75,0.00,,---,0.01,VWS V14.00,2013-03-11 06:28:00,
2013-03-11 02:33:00,50.7,42.7,29.75,SSE,153,7.0,11.0,74,0.00,,---,0.01,VWS V14.00,2013-03-11 06:33:00,
2013-03-11 02:38:00,51.1,42.8,29.75,SSE,154,7.0,11.0,73,0.00,,---,0.01,VWS V14.00,2013-03-11 06:38:00,
2013-03-11 02:43:00,51.5,42.8,29.75,SSE,157,9.0,14.0,72,0.00,,---,0.01,VWS V14.00,2013-03-11 06:43:00,
2013-03-11 02:48:00,51.7,42.6,29.74,SSE,164,8.0,14.0,71,0.00,,---,0.01,VWS V14.00,2013-03-11 06:48:00,
2013-03-11 02:54:00,51.8,42.7,29.74,South,176,8.0,14.0,71,0.00,,---,0.01,VWS V14.00,2013-03-11 06:54:00,
2013-03-11 02:59:00,52.0,42.9,29.73,SSE,166,7.0,10.0,71,0.00,,---,0.01,VWS V14.00,2013-03-11 06:59:00,
2013-03-11 03:04:00,52.4,42.9,29.73,SSE,163,6.0,12.0,70,0.00,,---,0.01,VWS V14.00,2013-03-11 07:04:00,
2013-03-11 03:09:00,52.9,43.4,29.73,SSE,150,7.0,12.0,70,0.00,,---,0.01,VWS V14.00,2013-03-11 07:09:00,
2013-03-11 03:14:00,53.2,43.3,29.73,SSE,157,6.0,13.0,69,0.00,,---,0.01,VWS V14.00,2013-03-11 07:14:00,
2013-03-11 03:19:00,53.3,43.0,29.73,SE,127,5.0,13.0,68,0.00,,---,0.01,VWS V14.00,2013-03-11 07:19:00,
2013-03-11 03:24:00,53.2,42.9,29.73,SSW,206,8.0,13.0,68,0.00,,---,0.01,VWS V14.00,2013-03-11 07:24:00,
2013-03-11 03:29:00,53.1,43.2,29.73,SSE,167,5.0,7.0,69,0.00,,---,0.01,VWS V14.00,2013-03-11 07:29:00,
2013-03-11 03:34:00,52.8,42.9,29.73,South,180,3.0,8.0,69,0.00,,---,0.01,VWS V14.00,2013-03-11 07:34:00,
2013-03-11 03:39:00,52.6,42.7,29.73,SSE,163,2.0,8.0,69,0.00,,---,0.01,VWS V14.00,2013-03-11 07:39:00,
2013-03-11 03:44:00,52.4,42.9,29.72,South,178,5.0,8.0,70,0.00,,---,0.01,VWS V14.00,2013-03-11 07:44:00,
2013-03-11 03:49:00,52.3,42.8,29.72,SSE,157,4.0,8.0,70,0.00,,---,0.01,VWS V14.00,2013-03-11 07:49:00,
2013-03-11 03:54:00,52.3,42.8,29.72,SSE,156,4.0,9.0,70,0.00,,---,0.01,VWS V14.00,2013-03-11 07:54:00,
2013-03-11 03:59:00,52.3,42.8,29.72,SSE,157,4.0,9.0,70,0.00,,---,0.01,VWS V14.00,2013-03-11 07:59:00,
2013-03-11 04:04:00,52.2,42.7,29.72,SSE,150,4.0,9.0,70,0.00,,---,0.01,VWS V14.00,2013-03-11 08:04:00,
2013-03-11 04:09:00,52.2,42.7,29.72,SSE,151,1.0,10.0,70,0.00,,---,0.01,VWS V14.00,2013-03-11 08:09:00,
2013-03-11 04:14:00,52.6,43.1,29.71,SSW,209,6.0,11.0,70,0.00,,---,0.01,VWS V14.00,2013-03-11 08:14:00,
2013-03-11 04:19:00,52.9,43.0,29.71,SSE,160,4.0,11.0,69,0.00,,---,0.01,VWS V14.00,2013-03-11 08:19:00,
2013-03-11 04:24:00,52.8,42.9,29.71,SSE,158,7.0,11.0,69,0.00,,---,0.01,VWS V14.00,2013-03-11 08:24:00,
2013-03-11 04:29:00,52.2,42.7,29.71,SSE,148,7.0,9.0,70,0.00,,---,0.01,VWS V14.00,2013-03-11 08:29:00,
2013-03-11 04:34:00,52.1,43.0,29.70,SSE,148,5.0,9.0,71,0.00,,---,0.01,VWS V14.00,2013-03-11 08:34:00,
2013-03-11 04:39:00,52.0,42.9,29.70,SSE,153,1.0,9.0,71,0.00,,---,0.01,VWS V14.00,2013-03-11 08:39:00,
2013-03-11 04:44:00,51.9,42.8,29.70,SSE,148,8.0,10.0,71,0.00,,---,0.01,VWS V14.00,2013-03-11 08:44:00,
2013-03-11 04:49:00,52.1,42.6,29.70,SE,139,1.0,10.0,70,0.00,,---,0.01,VWS V14.00,2013-03-11 08:49:00,
2013-03-11 04:54:00,52.1,43.0,29.70,SSE,157,4.0,10.0,71,0.00,,---,0.01,VWS V14.00,2013-03-11 08:54:00,
2013-03-11 04:59:00,51.9,42.8,29.69,SSE,157,1.0,4.0,71,0.00,,---,0.01,VWS V14.00,2013-03-11 08:59:00,
2013-03-11 05:04:00,51.6,42.5,29.69,SSE,157,4.0,5.0,71,0.00,,---,0.01,VWS V14.00,2013-03-11 09:04:00,
2013-03-11 05:09:00,51.2,42.5,29.69,SSE,158,2.0,5.0,72,0.00,,---,0.01,VWS V14.00,2013-03-11 09:09:00,
2013-03-11 05:14:00,50.8,42.1,29.70,SSE,157,1.0,5.0,72,0.00,,---,0.01,VWS V14.00,2013-03-11 09:14:00,
2013-03-11 05:19:00,50.5,42.2,29.69,SSE,157,1.0,5.0,73,0.00,,---,0.01,VWS V14.00,2013-03-11 09:19:00,
2013-03-11 05:24:00,50.4,42.4,29.69,SSE,158,1.0,5.0,74,0.00,,---,0.01,VWS V14.00,2013-03-11 09:24:00,
2013-03-11 05:29:00,50.4,42.4,29.69,SSE,156,2.0,4.0,74,0.00,,---,0.01,VWS V14.00,2013-03-11 09:29:00,
2013-03-11 05:34:00,50.5,42.5,29.69,SE,146,1.0,5.0,74,0.00,,---,0.01,VWS V14.00,2013-03-11 09:34:00,
2013-03-11 05:39:00,50.4,42.4,29.69,SE,146,2.0,5.0,74,0.00,,---,0.01,VWS V14.00,2013-03-11 09:39:00,
2013-03-11 05:44:00,50.5,42.5,29.68,SE,146,1.0,5.0,74,0.00,,---,0.01,VWS V14.00,2013-03-11 09:44:00,
2013-03-11 05:49:00,50.6,42.6,29.68,SE,146,0.0,5.0,74,0.00,,---,0.01,VWS V14.00,2013-03-11 09:49:00,
2013-03-11 05:54:00,50.6,42.3,29.69,SE,146,1.0,5.0,73,0.00,,---,0.01,VWS V14.00,2013-03-11 09:54:00,
2013-03-11 05:59:00,50.5,42.5,29.68,SE,146,1.0,4.0,74,0.00,,---,0.01,VWS V14.00,2013-03-11 09:59:00,
2013-03-11 06:04:00,50.5,42.5,29.69,SE,146,2.0,4.0,74,0.00,,---,0.01,VWS V14.00,2013-03-11 10:04:00,
2013-03-11 06:09:00,50.4,42.4,29.69,SE,146,2.0,5.0,74,0.00,,---,0.01,VWS V14.00,2013-03-11 10:09:00,
2013-03-11 06:14:00,50.3,42.3,29.69,SSE,154,5.0,6.0,74,0.00,,---,0.01,VWS V14.00,2013-03-11 10:14:00,
2013-03-11 06:19:00,50.2,42.2,29.69,SSE,154,1.0,6.0,74,0.00,,---,0.01,VWS V14.00,2013-03-11 10:19:00,
2013-03-11 06:24:00,50.0,42.0,29.68,SSE,154,2.0,6.0,74,0.00,,---,0.01,VWS V14.00,2013-03-11 10:24:00,
2013-03-11 06:29:00,49.8,42.2,29.68,SSE,151,4.0,6.0,75,0.00,,---,0.01,VWS V14.00,2013-03-11 10:29:00,
2013-03-11 06:34:00,50.3,42.7,29.68,South,177,6.0,12.0,75,0.00,,---,0.01,VWS V14.00,2013-03-11 10:34:00,
2013-03-11 06:39:00,50.9,42.6,29.68,SSE,166,2.0,12.0,73,0.00,,---,0.01,VWS V14.00,2013-03-11 10:39:00,
2013-03-11 06:44:00,50.9,42.6,29.68,South,182,2.0,12.0,73,0.00,,---,0.01,VWS V14.00,2013-03-11 10:44:00,
2013-03-11 06:49:00,50.7,42.4,29.68,SSE,167,4.0,12.0,73,0.00,,---,0.01,VWS V14.00,2013-03-11 10:49:00,
2013-03-11 06:54:00,50.6,42.3,29.68,South,173,0.0,12.0,73,0.00,,---,0.01,VWS V14.00,2013-03-11 10:54:00,
2013-03-11 06:59:00,50.4,42.1,29.69,SSE,166,1.0,5.0,73,0.00,,---,0.01,VWS V14.00,2013-03-11 10:59:00,
2013-03-11 07:04:00,50.3,42.3,29.69,South,189,0.0,6.0,74,0.00,,---,0.01,VWS V14.00,2013-03-11 11:04:00,
2013-03-11 07:09:00,50.2,42.2,29.69,SSE,164,1.0,6.0,74,0.00,,---,0.01,VWS V14.00,2013-03-11 11:09:00,
2013-03-11 07:14:00,50.1,42.5,29.69,South,171,4.0,7.0,75,0.00,,---,0.01,VWS V14.00,2013-03-11 11:14:00,
2013-03-11 07:19:00,49.9,42.7,29.69,SSE,153,2.0,9.0,76,0.00,,---,0.01,VWS V14.00,2013-03-11 11:19:00,
2013-03-11 07:24:00,49.8,42.5,29.69,SSE,157,4.0,9.0,76,0.00,,---,0.01,VWS V14.00,2013-03-11 11:24:00,
2013-03-11 07:29:00,49.7,42.8,29.68,South,187,1.0,5.0,77,0.00,,---,0.01,VWS V14.00,2013-03-11 11:29:00,
2013-03-11 07:34:00,49.6,42.7,29.68,SSE,160,4.0,6.0,77,0.00,,---,0.01,VWS V14.00,2013-03-11 11:34:00,
2013-03-11 07:39:00,49.6,43.0,29.68,South,178,2.0,9.0,78,0.00,,---,0.01,VWS V14.00,2013-03-11 11:39:00,
2013-03-11 07:44:00,49.6,43.0,29.68,South,188,2.0,9.0,78,0.00,,---,0.01,VWS V14.00,2013-03-11 11:44:00,
2013-03-11 07:49:00,49.6,43.0,29.68,SSW,200,1.0,9.0,78,0.00,,---,0.01,VWS V14.00,2013-03-11 11:49:00,
2013-03-11 07:54:00,49.5,43.3,29.67,SSE,152,5.0,9.0,79,0.00,,---,0.01,VWS V14.00,2013-03-11 11:54:00,
2013-03-11 07:59:00,49.4,43.2,29.68,SSW,196,1.0,6.0,79,0.00,,---,0.01,VWS V14.00,2013-03-11 11:59:00,
2013-03-11 08:04:00,49.3,43.1,29.68,SSE,165,5.0,6.0,79,0.00,,---,0.01,VWS V14.00,2013-03-11 12:04:00,
2013-03-11 08:09:00,49.3,43.1,29.68,South,171,4.0,7.0,79,0.00,,---,0.01,VWS V14.00,2013-03-11 12:09:00,
2013-03-11 08:14:00,49.0,42.8,29.67,SE,138,2.0,7.0,79,0.00,,---,0.01,VWS V14.00,2013-03-11 12:14:00,
2013-03-11 08:19:00,48.7,42.8,29.67,SE,138,1.0,7.0,80,0.00,,---,0.01,VWS V14.00,2013-03-11 12:19:00,
2013-03-11 08:24:00,48.5,42.6,29.69,SE,145,5.0,7.0,80,0.00,,---,0.01,VWS V14.00,2013-03-11 12:24:00,
2013-03-11 08:29:00,48.6,42.7,29.69,SSE,159,4.0,6.0,80,0.00,,---,0.01,VWS V14.00,2013-03-11 12:29:00,
2013-03-11 08:34:00,48.9,43.0,29.70,SSE,159,2.0,7.0,80,0.00,,---,0.01,VWS V14.00,2013-03-11 12:34:00,
2013-03-11 08:39:00,49.1,43.2,29.70,SSE,157,4.0,7.0,80,0.00,,---,0.01,VWS V14.00,2013-03-11 12:39:00,
2013-03-11 08:44:00,49.3,43.4,29.69,SSE,155,4.0,7.0,80,0.00,,---,0.01,VWS V14.00,2013-03-11 12:44:00,
2013-03-11 08:49:00,49.3,43.4,29.69,SSE,156,4.0,7.0,80,0.00,,---,0.01,VWS V14.00,2013-03-11 12:49:00,
2013-03-11 08:54:00,49.2,43.3,29.69,South,178,2.0,7.0,80,0.00,,---,0.01,VWS V14.00,2013-03-11 12:54:00,
2013-03-11 08:59:00,48.9,43.3,29.69,SSE,151,5.0,5.0,81,0.00,,---,0.01,VWS V14.00,2013-03-11 12:59:00,
2013-03-11 09:04:00,48.7,43.5,29.69,SSE,157,4.0,7.0,82,0.00,,---,0.01,VWS V14.00,2013-03-11 13:04:00,
2013-03-11 09:09:00,48.7,43.5,29.69,SSE,163,5.0,7.0,82,0.00,,---,0.01,VWS V14.00,2013-03-11 13:09:00,
2013-03-11 09:14:00,48.6,43.4,29.69,SSE,155,2.0,7.0,82,0.00,,---,0.01,VWS V14.00,2013-03-11 13:14:00,
2013-03-11 09:19:00,48.6,43.7,29.69,SSE,158,8.0,8.0,83,0.00,,---,0.01,VWS V14.00,2013-03-11 13:19:00,
2013-03-11 09:24:00,48.9,44.0,29.69,South,186,6.0,10.0,83,0.00,,---,0.01,VWS V14.00,2013-03-11 13:24:00,
2013-03-11 09:29:00,49.2,44.3,29.69,South,180,4.0,9.0,83,0.00,,---,0.01,VWS V14.00,2013-03-11 13:29:00,
2013-03-11 09:35:00,49.2,44.3,29.69,SSE,153,1.0,9.0,83,0.00,,---,0.01,VWS V14.00,2013-03-11 13:35:00,
2013-03-11 09:40:00,49.1,44.5,29.69,South,178,2.0,9.0,84,0.00,,---,0.01,VWS V14.00,2013-03-11 13:40:00,
2013-03-11 09:45:00,49.1,44.5,29.70,SSE,157,4.0,9.0,84,0.00,,---,0.01,VWS V14.00,2013-03-11 13:45:00,
2013-03-11 09:50:00,49.1,44.8,29.70,SSW,197,4.0,9.0,85,0.00,,---,0.01,VWS V14.00,2013-03-11 13:50:00,
2013-03-11 09:55:00,49.1,44.8,29.69,SSW,192,1.0,9.0,85,0.00,,---,0.01,VWS V14.00,2013-03-11 13:55:00,
2013-03-11 10:00:00,49.0,44.7,29.68,South,182,2.0,8.0,85,0.00,,---,0.01,VWS V14.00,2013-03-11 14:00:00,
2013-03-11 10:05:00,48.9,44.9,29.69,SW,215,7.0,11.0,86,0.00,,---,0.01,VWS V14.00,2013-03-11 14:05:00,
2013-03-11 10:10:00,48.9,45.2,29.69,SSE,168,7.0,11.0,87,0.00,,---,0.01,VWS V14.00,2013-03-11 14:10:00,
2013-03-11 10:15:00,48.9,45.2,29.69,SSE,155,2.0,12.0,87,0.00,,---,0.01,VWS V14.00,2013-03-11 14:15:00,
2013-03-11 10:20:00,48.9,45.2,29.68,SSE,163,4.0,12.0,87,0.00,,---,0.01,VWS V14.00,2013-03-11 14:20:00,
2013-03-11 10:27:00,48.8,45.4,29.68,SSE,153,9.0,11.0,88,0.00,,---,0.01,VWS V14.00,2013-03-11 14:27:00,
2013-03-11 10:36:00,48.8,45.7,29.67,SSE,160,5.0,9.0,89,0.00,,---,0.01,VWS V14.00,2013-03-11 14:36:00,
2013-03-11 10:41:00,48.8,45.7,29.67,SSE,159,2.0,9.0,89,0.00,,---,0.01,VWS V14.00,2013-03-11 14:41:00,
2013-03-11 10:46:00,48.7,45.6,29.68,SSE,159,5.0,9.0,89,0.00,,---,0.01,VWS V14.00,2013-03-11 14:46:00,
2013-03-11 10:51:00,48.6,45.5,29.67,SE,135,5.0,9.0,89,0.00,,---,0.01,VWS V14.00,2013-03-11 14:51:00,
2013-03-11 10:56:00,48.2,45.1,29.67,SE,146,5.0,9.0,89,0.00,,---,0.01,VWS V14.00,2013-03-11 14:56:00,
2013-03-11 11:01:00,48.0,44.9,29.67,SSE,150,5.0,9.0,89,0.00,,---,0.01,VWS V14.00,2013-03-11 15:01:00,
2013-03-11 11:06:00,48.0,45.2,29.66,SSE,150,6.0,10.0,90,0.00,,---,0.01,VWS V14.00,2013-03-11 15:06:00,
2013-03-11 11:11:00,48.1,45.3,29.66,SE,136,7.0,11.0,90,0.00,,---,0.01,VWS V14.00,2013-03-11 15:11:00,
2013-03-11 11:16:00,48.2,45.7,29.66,SSE,157,10.0,11.0,91,0.00,,---,0.01,VWS V14.00,2013-03-11 15:16:00,
2013-03-11 11:27:00,48.1,45.9,29.65,SSE,148,9.0,13.0,92,0.01,,---,0.02,VWS V14.00,2013-03-11 15:27:00,
2013-03-11 11:36:00,48.4,46.5,29.65,SSE,164,8.0,12.0,93,0.01,,---,0.02,VWS V14.00,2013-03-11 15:36:00,
2013-03-11 11:41:00,48.6,46.7,29.65,SSE,158,9.0,13.0,93,0.01,,---,0.02,VWS V14.00,2013-03-11 15:41:00,
2013-03-11 11:46:00,48.7,46.8,29.65,SSE,154,12.0,15.0,93,0.01,,---,0.02,VWS V14.00,2013-03-11 15:46:00,
2013-03-11 11:52:00,49.0,47.1,29.65,SSE,161,10.0,15.0,93,0.01,,---,0.02,VWS V14.00,2013-03-11 15:52:00,
2013-03-11 11:57:00,49.2,47.3,29.64,SSE,148,9.0,15.0,93,0.01,,---,0.02,VWS V14.00,2013-03-11 15:57:00,
2013-03-11 12:02:00,49.3,47.4,29.64,SE,132,8.0,13.0,93,0.01,,---,0.02,VWS V14.00,2013-03-11 16:02:00,
2013-03-11 12:07:00,49.1,46.9,29.64,SSE,156,10.0,13.0,92,0.01,,---,0.02,VWS V14.00,2013-03-11 16:07:00,
2013-03-11 12:12:00,49.0,47.1,29.63,SE,140,7.0,13.0,93,0.01,,---,0.02,VWS V14.00,2013-03-11 16:12:00,
2013-03-11 12:17:00,49.1,47.2,29.63,SSE,166,9.0,13.0,93,0.01,,---,0.02,VWS V14.00,2013-03-11 16:17:00,
2013-03-11 12:22:00,49.3,47.4,29.63,SSE,157,7.0,13.0,93,0.01,,---,0.02,VWS V14.00,2013-03-11 16:22:00,
2013-03-11 12:27:00,49.4,47.5,29.62,SSW,194,5.0,13.0,93,0.01,,---,0.02,VWS V14.00,2013-03-11 16:27:00,
2013-03-11 12:32:00,49.5,47.6,29.62,SSE,150,7.0,11.0,93,0.00,,---,0.02,VWS V14.00,2013-03-11 16:32:00,
2013-03-11 12:37:00,49.5,47.3,29.61,SSE,161,8.0,13.0,92,0.00,,---,0.02,VWS V14.00,2013-03-11 16:37:00,
2013-03-11 12:42:00,49.6,47.4,29.61,SSE,161,5.0,13.0,92,0.00,,---,0.02,VWS V14.00,2013-03-11 16:42:00,
2013-03-11 12:47:00,49.7,47.5,29.61,SSE,165,7.0,13.0,92,0.00,,---,0.02,VWS V14.00,2013-03-11 16:47:00,
2013-03-11 12:52:00,50.0,47.8,29.61,SSE,161,11.0,13.0,92,0.00,,---,0.02,VWS V14.00,2013-03-11 16:52:00,
2013-03-11 12:57:00,50.2,48.0,29.61,SE,135,8.0,13.0,92,0.00,,---,0.02,VWS V14.00,2013-03-11 16:57:00,
2013-03-11 13:07:00,50.3,47.8,29.60,SSE,155,13.0,15.0,91,0.00,,---,0.02,VWS V14.00,2013-03-11 17:07:00,
2013-03-11 13:12:00,50.2,47.7,29.60,SE,135,8.0,15.0,91,0.01,,---,0.03,VWS V14.00,2013-03-11 17:12:00,
2013-03-11 13:17:00,50.1,47.6,29.60,SSE,150,12.0,15.0,91,0.01,,---,0.03,VWS V14.00,2013-03-11 17:17:00,
2013-03-11 13:22:00,50.1,47.6,29.61,SSE,167,9.0,15.0,91,0.01,,---,0.03,VWS V14.00,2013-03-11 17:22:00,
2013-03-11 13:27:00,50.2,47.7,29.60,SE,146,8.0,15.0,91,0.01,,---,0.03,VWS V14.00,2013-03-11 17:27:00,
2013-03-11 13:32:00,50.1,47.6,29.60,SSE,150,10.0,12.0,91,0.01,,---,0.03,VWS V14.00,2013-03-11 17:32:00,
2013-03-11 13:37:00,50.0,47.5,29.60,SSE,153,9.0,13.0,91,0.01,,---,0.03,VWS V14.00,2013-03-11 17:37:00,
2013-03-11 13:42:00,49.9,47.7,29.60,South,169,6.0,13.0,92,0.01,,---,0.03,VWS V14.00,2013-03-11 17:42:00,
2013-03-11 13:47:00,49.7,47.5,29.59,SSE,154,8.0,13.0,92,0.01,,---,0.03,VWS V14.00,2013-03-11 17:47:00,
2013-03-11 13:52:00,49.7,47.5,29.59,SE,138,4.0,13.0,92,0.01,,---,0.03,VWS V14.00,2013-03-11 17:52:00,
2013-03-11 13:57:00,49.7,47.8,29.58,SE,133,9.0,13.0,93,0.01,,---,0.03,VWS V14.00,2013-03-11 17:57:00,
2013-03-11 14:02:00,49.8,47.9,29.58,SE,138,6.0,10.0,93,0.01,,---,0.03,VWS V14.00,2013-03-11 18:02:00,
2013-03-11 14:07:00,49.9,48.0,29.57,ESE,109,6.0,13.0,93,0.01,,---,0.03,VWS V14.00,2013-03-11 18:07:00,
2013-03-11 14:12:00,49.9,48.0,29.57,SE,124,6.0,13.0,93,0.01,,---,0.03,VWS V14.00,2013-03-11 18:12:00,
2013-03-11 14:17:00,49.9,48.0,29.57,SE,145,7.0,13.0,93,0.02,,---,0.04,VWS V14.00,2013-03-11 18:17:00,
2013-03-11 14:22:00,49.9,48.0,29.57,ESE,121,7.0,13.0,93,0.02,,---,0.04,VWS V14.00,2013-03-11 18:22:00,
2013-03-11 14:27:00,50.0,48.1,29.57,East,90,2.0,13.0,93,0.02,,---,0.04,VWS V14.00,2013-03-11 18:27:00,
2013-03-11 14:32:00,50.1,48.2,29.57,ESE,104,6.0,12.0,93,0.01,,---,0.04,VWS V14.00,2013-03-11 18:32:00,
2013-03-11 14:37:00,50.3,48.4,29.56,SSE,159,8.0,13.0,93,0.01,,---,0.04,VWS V14.00,2013-03-11 18:37:00,
2013-03-11 14:42:00,50.3,48.4,29.56,SE,146,5.0,13.0,93,0.01,,---,0.04,VWS V14.00,2013-03-11 18:42:00,
2013-03-11 14:47:00,50.2,48.3,29.55,SE,136,4.0,13.0,93,0.01,,---,0.04,VWS V14.00,2013-03-11 18:47:00,
2013-03-11 14:52:00,50.1,48.2,29.54,SE,132,6.0,13.0,93,0.01,,---,0.04,VWS V14.00,2013-03-11 18:52:00,
2013-03-11 14:58:00,50.1,48.2,29.53,SE,136,9.0,13.0,93,0.01,,---,0.04,VWS V14.00,2013-03-11 18:58:00,
2013-03-11 15:03:00,50.0,48.1,29.53,SSE,148,6.0,11.0,93,0.01,,---,0.04,VWS V14.00,2013-03-11 19:03:00,
2013-03-11 15:08:00,50.0,48.1,29.53,SE,146,4.0,11.0,93,0.01,,---,0.04,VWS V14.00,2013-03-11 19:08:00,
2013-03-11 15:13:00,49.9,48.0,29.52,SSE,157,5.0,11.0,93,0.01,,---,0.04,VWS V14.00,2013-03-11 19:13:00,
2013-03-11 15:18:00,49.7,47.8,29.52,ESE,121,2.0,12.0,93,0.01,,---,0.04,VWS V14.00,2013-03-11 19:18:00,
2013-03-11 15:23:00,49.4,47.5,29.52,SE,132,7.0,12.0,93,0.01,,---,0.04,VWS V14.00,2013-03-11 19:23:00,
2013-03-11 15:28:00,49.3,47.7,29.52,ESE,117,6.0,6.0,94,0.00,,---,0.04,VWS V14.00,2013-03-11 19:28:00,
2013-03-11 15:33:00,49.1,47.5,29.51,SE,124,5.0,11.0,94,0.00,,---,0.04,VWS V14.00,2013-03-11 19:33:00,
2013-03-11 15:38:00,48.9,47.2,29.51,ESE,119,7.0,11.0,94,0.01,,---,0.05,VWS V14.00,2013-03-11 19:38:00,
2013-03-11 15:43:00,48.7,47.0,29.51,ESE,105,5.0,11.0,94,0.02,,---,0.06,VWS V14.00,2013-03-11 19:43:00,
2013-03-11 15:48:00,48.7,47.3,29.50,ESE,118,5.0,11.0,95,0.03,,---,0.07,VWS V14.00,2013-03-11 19:48:00,
2013-03-11 15:53:00,48.7,47.3,29.50,ESE,120,0.0,11.0,95,0.05,,---,0.09,VWS V14.00,2013-03-11 19:53:00,
2013-03-11 15:58:00,48.7,47.3,29.50,ESE,121,4.0,4.0,95,0.07,,---,0.11,VWS V14.00,2013-03-11 19:58:00,
2013-03-11 16:03:00,48.6,47.2,29.49,ESE,121,0.0,5.0,95,0.08,,---,0.12,VWS V14.00,2013-03-11 20:03:00,
2013-03-11 16:08:00,48.6,47.2,29.49,ESE,120,0.0,5.0,95,0.10,,---,0.14,VWS V14.00,2013-03-11 20:08:00,
2013-03-11 16:13:00,48.5,47.1,29.49,ESE,120,4.0,6.0,95,0.11,,---,0.15,VWS V14.00,2013-03-11 20:13:00,
2013-03-11 16:18:00,48.4,47.0,29.49,ESE,121,4.0,6.0,95,0.13,,---,0.17,VWS V14.00,2013-03-11 20:18:00,
2013-03-11 16:23:00,48.3,46.9,29.49,ESE,120,2.0,6.0,95,0.14,,---,0.18,VWS V14.00,2013-03-11 20:23:00,
2013-03-11 16:28:00,48.2,46.8,29.49,ESE,120,2.0,2.0,95,0.16,,---,0.20,VWS V14.00,2013-03-11 20:28:00,
2013-03-11 16:33:00,48.1,46.7,29.49,ESE,121,2.0,5.0,95,0.17,,---,0.21,VWS V14.00,2013-03-11 20:33:00,
2013-03-11 16:38:00,48.0,46.6,29.49,ESE,120,2.0,5.0,95,0.18,,---,0.22,VWS V14.00,2013-03-11 20:38:00,
2013-03-11 16:43:00,47.9,46.5,29.49,ESE,120,5.0,7.0,95,0.19,,---,0.23,VWS V14.00,2013-03-11 20:43:00,
2013-03-11 16:48:00,47.9,46.5,29.49,ESE,120,2.0,7.0,95,0.21,,---,0.25,VWS V14.00,2013-03-11 20:48:00,
2013-03-11 16:53:00,48.0,46.6,29.49,ESE,121,2.0,7.0,95,0.21,,---,0.25,VWS V14.00,2013-03-11 20:53:00,
2013-03-11 16:58:00,48.1,46.7,29.49,SW,217,0.0,4.0,95,0.16,,---,0.27,VWS V14.00,2013-03-11 20:58:00,
2013-03-11 17:03:00,48.1,46.7,29.48,South,173,1.0,5.0,95,0.17,,---,0.28,VWS V14.00,2013-03-11 21:03:00,
2013-03-11 17:08:00,48.2,46.8,29.49,SSE,161,6.0,7.0,95,0.18,,---,0.29,VWS V14.00,2013-03-11 21:08:00,
2013-03-11 17:13:00,48.1,46.7,29.49,South,173,4.0,7.0,95,0.18,,---,0.29,VWS V14.00,2013-03-11 21:13:00,
2013-03-11 17:18:00,47.9,46.5,29.49,South,182,4.0,7.0,95,0.19,,---,0.30,VWS V14.00,2013-03-11 21:18:00,
2013-03-11 17:23:00,47.8,46.4,29.49,SSW,199,1.0,7.0,95,0.20,,---,0.31,VWS V14.00,2013-03-11 21:23:00,
2013-03-11 17:28:00,47.6,46.2,29.49,South,188,4.0,6.0,95,0.11,,---,0.31,VWS V14.00,2013-03-11 21:28:00,
2013-03-11 17:33:00,47.4,46.0,29.49,SSW,201,4.0,6.0,95,0.12,,---,0.32,VWS V14.00,2013-03-11 21:33:00,
2013-03-11 17:38:00,47.3,45.9,29.49,SSW,209,3.0,8.0,95,0.13,,---,0.33,VWS V14.00,2013-03-11 21:38:00,
2013-03-11 17:43:00,47.4,46.0,29.49,SSW,200,5.0,8.0,95,0.13,,---,0.33,VWS V14.00,2013-03-11 21:43:00,
2013-03-11 17:48:00,47.3,45.9,29.49,South,180,3.0,10.0,95,0.13,,---,0.33,VWS V14.00,2013-03-11 21:48:00,
2013-03-11 17:53:00,47.4,46.0,29.48,SSW,200,4.0,10.0,95,0.13,,---,0.33,VWS V14.00,2013-03-11 21:53:00,
2013-03-11 17:58:00,47.4,46.0,29.48,SSW,209,1.0,6.0,95,0.07,,---,0.33,VWS V14.00,2013-03-11 21:58:00,
2013-03-11 18:03:00,47.4,46.0,29.48,South,184,4.0,8.0,95,0.07,,---,0.33,VWS V14.00,2013-03-11 22:03:00,
2013-03-11 18:08:00,47.5,45.9,29.48,SSW,205,4.0,8.0,94,0.07,,---,0.33,VWS V14.00,2013-03-11 22:08:00,
2013-03-11 18:13:00,47.4,45.8,29.49,SSW,194,5.0,8.0,94,0.07,,---,0.33,VWS V14.00,2013-03-11 22:13:00,
2013-03-11 18:18:00,47.2,45.6,29.50,South,188,3.0,8.0,94,0.07,,---,0.33,VWS V14.00,2013-03-11 22:18:00,
2013-03-11 18:23:00,46.9,45.0,29.50,SW,235,9.0,17.0,93,0.07,,---,0.33,VWS V14.00,2013-03-11 22:23:00,
2013-03-11 18:28:00,46.7,44.8,29.51,WSW,255,9.0,16.0,93,0.03,,---,0.34,VWS V14.00,2013-03-11 22:28:00,
2013-03-11 18:33:00,46.0,43.8,29.52,SW,229,11.0,16.0,92,0.04,,---,0.35,VWS V14.00,2013-03-11 22:33:00,
2013-03-11 18:38:00,45.6,43.4,29.52,SSW,199,7.0,16.0,92,0.04,,---,0.35,VWS V14.00,2013-03-11 22:38:00,
2013-03-11 18:43:00,45.1,42.1,29.52,WSW,248,12.0,20.0,89,0.04,,---,0.35,VWS V14.00,2013-03-11 22:43:00,
2013-03-11 18:48:00,44.9,41.6,29.53,West,273,11.0,20.0,88,0.04,,---,0.35,VWS V14.00,2013-03-11 22:48:00,
2013-03-11 18:53:00,44.4,41.1,29.53,West,269,8.0,20.0,88,0.04,,---,0.35,VWS V14.00,2013-03-11 22:53:00,
2013-03-11 18:58:00,44.1,40.8,29.52,WSW,246,3.0,11.0,88,0.02,,---,0.35,VWS V14.00,2013-03-11 22:58:00,
2013-03-11 19:08:00,43.6,40.6,29.53,SW,218,9.0,12.0,89,0.02,,---,0.35,VWS V14.00,2013-03-11 23:08:00,
2013-03-11 19:13:00,43.3,40.3,29.53,SW,221,4.0,12.0,89,0.02,,---,0.35,VWS V14.00,2013-03-11 23:13:00,
2013-03-11 19:18:00,43.0,40.0,29.53,SW,225,6.0,12.0,89,0.02,,---,0.35,VWS V14.00,2013-03-11 23:18:00,
2013-03-11 19:24:00,42.8,40.1,29.54,SW,215,5.0,12.0,90,0.02,,---,0.35,VWS V14.00,2013-03-11 23:24:00,
2013-03-11 19:29:00,42.7,40.0,29.53,SW,219,7.0,10.0,90,0.01,,---,0.35,VWS V14.00,2013-03-11 23:29:00,
2013-03-11 19:34:00,42.6,39.9,29.54,WSW,244,7.0,12.0,90,0.01,,---,0.35,VWS V14.00,2013-03-11 23:34:00,
2013-03-11 19:39:00,42.4,39.7,29.53,WSW,238,6.0,12.0,90,0.01,,---,0.35,VWS V14.00,2013-03-11 23:39:00,
2013-03-11 19:44:00,42.2,39.5,29.54,West,263,9.0,14.0,90,0.01,,---,0.35,VWS V14.00,2013-03-11 23:44:00,
2013-03-11 19:49:00,42.0,39.3,29.54,SW,225,8.0,19.0,90,0.01,,---,0.35,VWS V14.00,2013-03-11 23:49:00,
2013-03-11 19:54:00,41.8,38.8,29.53,WSW,252,6.0,19.0,89,0.01,,---,0.35,VWS V14.00,2013-03-11 23:54:00,
2013-03-11 19:59:00,41.4,38.1,29.54,SW,232,10.0,12.0,88,0.00,,---,0.35,VWS V14.00,2013-03-11 23:59:00,
2013-03-11 20:04:00,41.0,37.7,29.54,SW,234,6.0,14.0,88,0.00,,---,0.35,VWS V14.00,2013-03-12 00:04:00,
2013-03-11 20:09:00,40.7,37.4,29.54,SW,233,8.0,15.0,88,0.00,,---,0.35,VWS V14.00,2013-03-12 00:09:00,
2013-03-11 20:14:00,40.6,37.0,29.55,SW,222,11.0,20.0,87,0.00,,---,0.35,VWS V14.00,2013-03-12 00:14:00,
2013-03-11 20:19:00,40.6,37.0,29.55,SW,219,8.0,20.0,87,0.00,,---,0.35,VWS V14.00,2013-03-12 00:19:00,
2013-03-11 20:24:00,40.4,36.8,29.55,SSW,211,7.0,20.0,87,0.00,,---,0.35,VWS V14.00,2013-03-12 00:24:00,
2013-03-11 20:29:00,40.3,36.8,29.56,SW,228,11.0,17.0,87,0.00,,---,0.35,VWS V14.00,2013-03-12 00:29:00,
2013-03-11 20:34:00,40.1,36.5,29.56,SW,221,8.0,18.0,87,0.00,,---,0.35,VWS V14.00,2013-03-12 00:34:00,
2013-03-11 20:39:00,40.0,36.5,29.56,WSW,249,12.0,18.0,87,0.00,,---,0.35,VWS V14.00,2013-03-12 00:39:00,
2013-03-11 20:44:00,39.8,36.0,29.56,SSW,196,13.0,18.0,86,0.00,,---,0.35,VWS V14.00,2013-03-12 00:44:00,
2013-03-11 20:49:00,39.8,36.0,29.57,SW,214,9.0,20.0,86,0.00,,---,0.35,VWS V14.00,2013-03-12 00:49:00,
2013-03-11 20:54:00,39.7,35.9,29.57,WSW,254,10.0,20.0,86,0.00,,---,0.35,VWS V14.00,2013-03-12 00:54:00,
2013-03-11 20:59:00,39.6,35.8,29.57,WSW,243,9.0,14.0,86,0.00,,---,0.35,VWS V14.00,2013-03-12 00:59:00,
2013-03-11 21:04:00,39.4,35.6,29.57,SW,221,8.0,15.0,86,0.00,,---,0.35,VWS V14.00,2013-03-12 01:04:00,
2013-03-11 21:09:00,39.2,35.4,29.58,SW,230,12.0,17.0,86,0.00,,---,0.35,VWS V14.00,2013-03-12 01:09:00,
2013-03-11 21:14:00,39.0,35.2,29.58,SSW,211,13.0,17.0,86,0.00,,---,0.35,VWS V14.00,2013-03-12 01:14:00,
2013-03-11 21:19:00,38.8,34.7,29.58,SW,223,12.0,21.0,85,0.00,,---,0.35,VWS V14.00,2013-03-12 01:19:00,
2013-03-11 21:24:00,38.7,34.3,29.58,WSW,249,15.0,21.0,84,0.00,,---,0.35,VWS V14.00,2013-03-12 01:24:00,
2013-03-11 21:29:00,38.5,34.1,29.58,SW,234,6.0,12.0,84,0.00,,---,0.35,VWS V14.00,2013-03-12 01:29:00,
2013-03-11 21:34:00,38.4,34.3,29.58,WSW,244,9.0,17.0,85,0.00,,---,0.35,VWS V14.00,2013-03-12 01:34:00,
2013-03-11 21:39:00,38.4,34.3,29.58,SW,225,6.0,17.0,85,0.00,,---,0.35,VWS V14.00,2013-03-12 01:39:00,
2013-03-11 21:44:00,38.2,34.1,29.58,West,269,7.0,17.0,85,0.00,,---,0.35,VWS V14.00,2013-03-12 01:44:00,
2013-03-11 21:49:00,38.2,33.8,29.58,WSW,237,9.0,17.0,84,0.00,,---,0.35,VWS V14.00,2013-03-12 01:49:00,
2013-03-11 21:54:00,38.0,33.6,29.59,SW,226,8.0,17.0,84,0.00,,---,0.35,VWS V14.00,2013-03-12 01:54:00,
2013-03-11 21:59:00,37.9,33.8,29.59,WSW,240,8.0,14.0,85,0.00,,---,0.35,VWS V14.00,2013-03-12 01:59:00,
2013-03-11 22:04:00,37.7,33.6,29.59,SW,223,14.0,17.0,85,0.00,,---,0.35,VWS V14.00,2013-03-12 02:04:00,
2013-03-11 22:09:00,37.7,33.6,29.60,SW,235,8.0,17.0,85,0.00,,---,0.35,VWS V14.00,2013-03-12 02:09:00,
2013-03-11 22:14:00,37.5,33.7,29.60,WSW,251,12.0,17.0,86,0.00,,---,0.35,VWS V14.00,2013-03-12 02:14:00,
2013-03-11 22:19:00,37.5,33.4,29.61,WSW,255,13.0,19.0,85,0.00,,---,0.35,VWS V14.00,2013-03-12 02:19:00,
2013-03-11 22:24:00,37.5,33.4,29.61,West,263,9.0,19.0,85,0.00,,---,0.35,VWS V14.00,2013-03-12 02:24:00,
2013-03-11 22:29:00,37.4,33.3,29.61,WSW,242,9.0,13.0,85,0.00,,---,0.35,VWS V14.00,2013-03-12 02:29:00,
2013-03-11 22:34:00,37.4,33.6,29.61,SW,215,8.0,14.0,86,0.00,,---,0.35,VWS V14.00,2013-03-12 02:34:00,
2013-03-11 22:39:00,37.4,33.6,29.61,WSW,258,10.0,14.0,86,0.00,,---,0.35,VWS V14.00,2013-03-12 02:39:00,
2013-03-11 22:44:00,37.4,33.3,29.61,SW,219,15.0,18.0,85,0.00,,---,0.35,VWS V14.00,2013-03-12 02:44:00,
2013-03-11 22:49:00,37.4,33.3,29.62,West,266,8.0,18.0,85,0.00,,---,0.35,VWS V14.00,2013-03-12 02:49:00,
2013-03-11 22:54:00,37.3,33.2,29.61,SW,227,5.0,18.0,85,0.00,,---,0.35,VWS V14.00,2013-03-12 02:54:00,
2013-03-11 22:59:00,37.3,33.2,29.62,SW,232,10.0,15.0,85,0.00,,---,0.35,VWS V14.00,2013-03-12 02:59:00,
2013-03-11 23:04:00,37.2,33.1,29.62,SSW,200,8.0,15.0,85,0.00,,---,0.35,VWS V14.00,2013-03-12 03:04:00,
2013-03-11 23:09:00,37.3,33.2,29.63,SW,222,12.0,22.0,85,0.00,,---,0.35,VWS V14.00,2013-03-12 03:09:00,
2013-03-11 23:14:00,37.3,33.2,29.62,SW,216,15.0,22.0,85,0.00,,---,0.35,VWS V14.00,2013-03-12 03:14:00,
2013-03-11 23:19:00,37.2,33.1,29.63,SW,223,7.0,22.0,85,0.00,,---,0.35,VWS V14.00,2013-03-12 03:19:00,
2013-03-11 23:24:00,37.2,33.4,29.63,SW,227,13.0,22.0,86,0.00,,---,0.35,VWS V14.00,2013-03-12 03:24:00,
2013-03-11 23:29:00,37.2,33.4,29.63,SW,236,9.0,16.0,86,0.00,,---,0.35,VWS V14.00,2013-03-12 03:29:00,
2013-03-11 23:34:00,37.1,33.3,29.63,SSW,201,10.0,17.0,86,0.00,,---,0.35,VWS V14.00,2013-03-12 03:34:00,
2013-03-11 23:39:00,37.2,33.4,29.63,WSW,238,9.0,18.0,86,0.00,,---,0.35,VWS V14.00,2013-03-12 03:39:00,
2013-03-11 23:44:00,37.3,33.2,29.64,SW,219,16.0,19.0,85,0.00,,---,0.35,VWS V14.00,2013-03-12 03:44:00,
2013-03-11 23:49:00,37.1,33.3,29.64,SW,232,12.0,19.0,86,0.00,,---,0.35,VWS V14.00,2013-03-12 03:49:00,
2013-03-11 23:54:00,37.1,33.3,29.64,SSW,197,9.0,19.0,86,0.00,,---,0.35,VWS V14.00,2013-03-12 03:54:00,
2013-03-11 23:59:00,37.0,33.2,29.64,SSW,212,11.0,18.0,86,0.00,,---,0.00,VWS V14.00,2013-03-12 03:59:00,